Flight Track Log - Related Links

Times and Time Zones

All times are in EDT time to prevent confusion due to time zone crossing. See the ASQ5337 flight status page for this flight to view local times or setup timezone preferences in your user account.

Time Position Orientation Groundspeed Altitude Reporting Facility
EDT Latitude Longitude Course Direction KTS MPH feet Rate Location/Type
Sat 12:09:50 PM 33.6500 -84.3667 270° West 185 213 2,800  Level Atlanta TRACON
Sat 12:10:44 PM 33.6833 -84.3000 59° Northeast 268 308 4,900 2,623 Climbing Atlanta TRACON
Sat 12:12:53 PM 33.8106 -84.3414 345° North 272 313 10,800 2,349 Climbing Atlanta Center
Sat 12:13:53 PM 33.8125 -84.4339 271° West 260 299 12,300 1,900 Climbing Atlanta Center
Sat 12:14:53 PM 33.8119 -84.5539 270° West 308 354 14,600 2,200 Climbing Atlanta Center
Sat 12:15:00 PM 33.8001 -84.4596 270° West  Level FlightAware Approximate
Sat 12:15:53 PM 33.7697 -84.6486 242° Southwest 322 371 16,700  Level Atlanta Center
Sat 12:16:53 PM 33.7131 -84.7331 231° Southwest 317 365 18,500 1,650 Climbing Atlanta Center
Sat 12:17:53 PM 33.6581 -84.8225 234° Southwest 328 377 20,000 750 Climbing Atlanta Center
Sat 12:18:53 PM 33.5889 -84.9042 225° Southwest 346 398 20,000  Level Atlanta Center
Sat 12:19:53 PM 33.5236 -84.9808 224° Southwest 346 398 20,000  Level Atlanta Center
Sat 12:20:53 PM 33.4561 -85.0597 224° Southwest 341 392 20,000  Level Atlanta Center
Sat 12:21:53 PM 33.3928 -85.1361 225° Southwest 334 384 20,000  Level Atlanta Center
Sat 12:22:53 PM 33.3253 -85.2097 222° Southwest 328 377 20,000  Level Atlanta Center
Sat 12:23:53 PM 33.2619 -85.2858 225° Southwest 328 377 20,000  Level Atlanta Center
Sat 12:24:53 PM 33.2047 -85.3597 227° Southwest 328 377 20,000  Level Atlanta Center
Sat 12:25:53 PM 33.1372 -85.4331 222° Southwest 328 377 20,000 -150 Level Atlanta Center
Sat 12:26:53 PM 33.0653 -85.5161 224° Southwest 328 377 19,700 -900 Descending Atlanta Center
Sat 12:27:53 PM 32.9997 -85.5919 224° Southwest 328 377 18,200 -1,350 Descending Atlanta Center
Sat 12:28:53 PM 32.9361 -85.6700 226° Southwest 328 377 17,000 -1,350 Descending Atlanta Center
Sat 12:29:53 PM 32.8725 -85.7381 222° Southwest 328 377 15,500 -1,550 Descending Atlanta Center
Sat 12:30:53 PM 32.8108 -85.8108 225° Southwest 323 372 13,900 -1,600 Descending Atlanta Center
Sat 12:31:53 PM 32.7514 -85.8764 223° Southwest 318 366 12,300 -1,600 Descending Atlanta Center
Sat 12:32:53 PM 32.6900 -85.9492 225° Southwest 308 354 10,700 -1,650 Descending Atlanta Center
Sat 12:33:53 PM 32.6367 -86.0122 225° Southwest 296 341 9,000 -1,850 Descending Atlanta Center
Sat 12:34:53 PM 32.5856 -86.0750 226° Southwest 277 319 7,000 -2,000 Descending Atlanta Center
Sat 12:35:53 PM 32.5469 -86.1456 237° Southwest 265 305 5,000 -1,950 Descending Atlanta Center
Sat 12:36:53 PM 32.5142 -86.2189 242° Southwest 260 299 3,100 -1,000 Descending Atlanta Center
Sat 12:37:53 PM 32.4794 -86.2942 241° Southwest 254 292 3,000 -50 Descending Atlanta Center
Sat 12:38:53 PM 32.4511 -86.3600 243° Southwest 249 287 3,000  Level Atlanta Center
Sat 12:40:00 PM 32.3641 -86.3797 228° Southwest  Level Estimated
Sat 12:47:00 PM 32.3000 -86.3833 228° Southwest  Level FlightAware Approximate
Sat 12:48:00 PM 32.3006 -86.3940 228° Southwest  Level Estimated
Sat 12:49:00 PM 32.3006 -86.3940 228° Southwest  Level Estimated
Sat 12:50:00 PM 32.3006 -86.3940 228° Southwest  Level Estimated
Sat 12:51:00 PM 32.3006 -86.3940 228° Southwest  Level Estimated

Login

Don't have an account? Register now (free) for customized features, flight alerts, and more!